sensor_id;sensor_type;location;lat;lon;timestamp;P1;durP1;ratioP1;P2;durP2;ratioP2
20954;SDS011;10636;19.390;-99.256;2022-12-18T00:00:25;11.27;;;10.07;;
20954;SDS011;10636;19.390;-99.256;2022-12-18T00:02:53;9.65;;;8.75;;
20954;SDS011;10636;19.390;-99.256;2022-12-18T00:05:22;10.55;;;9.25;;
20954;SDS011;10636;19.390;-99.256;2022-12-18T00:07:51;12.27;;;9.45;;
20954;SDS011;10636;19.390;-99.256;2022-12-18T00:10:19;10.90;;;8.50;;
20954;SDS011;10636;19.390;-99.256;2022-12-18T00:12:47;11.98;;;9.35;;
20954;SDS011;10636;19.390;-99.256;2022-12-18T00:15:18;12.10;;;9.68;;
20954;SDS011;10636;19.390;-99.256;2022-12-18T00:17:46;10.02;;;9.07;;
20954;SDS011;10636;19.390;-99.256;2022-12-18T00:20:15;10.10;;;9.13;;
20954;SDS011;10636;19.390;-99.256;2022-12-18T00:22:47;9.30;;;8.10;;
20954;SDS011;10636;19.390;-99.256;2022-12-18T00:25:15;8.98;;;8.05;;
20954;SDS011;10636;19.390;-99.256;2022-12-18T00:27:44;9.02;;;8.10;;
20954;SDS011;10636;19.390;-99.256;2022-12-18T00:30:12;9.88;;;8.27;;
20954;SDS011;10636;19.390;-99.256;2022-12-18T00:32:43;9.40;;;8.50;;
20954;SDS011;10636;19.390;-99.256;2022-12-18T00:35:11;9.77;;;8.75;;
20954;SDS011;10636;19.390;-99.256;2022-12-18T00:37:40;9.43;;;8.52;;
20954;SDS011;10636;19.390;-99.256;2022-12-18T00:40:09;9.60;;;8.77;;
20954;SDS011;10636;19.390;-99.256;2022-12-18T00:42:38;9.38;;;8.52;;
20954;SDS011;10636;19.390;-99.256;2022-12-18T00:45:24;9.57;;;8.63;;
20954;SDS011;10636;19.390;-99.256;2022-12-18T00:47:54;10.35;;;8.65;;
20954;SDS011;10636;19.390;-99.256;2022-12-18T00:50:24;9.45;;;8.65;;
20954;SDS011;10636;19.390;-99.256;2022-12-18T00:52:53;9.52;;;8.70;;
20954;SDS011;10636;19.390;-99.256;2022-12-18T00:55:21;9.10;;;8.20;;
20954;SDS011;10636;19.390;-99.256;2022-12-18T00:57:50;9.32;;;8.43;;
20954;SDS011;10636;19.390;-99.256;2022-12-18T01:00:19;8.73;;;7.93;;
20954;SDS011;10636;19.390;-99.256;2022-12-18T01:02:47;9.32;;;8.43;;
20954;SDS011;10636;19.390;-99.256;2022-12-18T01:05:18;9.63;;;8.57;;
20954;SDS011;10636;19.390;-99.256;2022-12-18T01:07:47;9.07;;;8.27;;
20954;SDS011;10636;19.390;-99.256;2022-12-18T01:10:15;8.85;;;7.95;;
20954;SDS011;10636;19.390;-99.256;2022-12-18T01:12:44;9.70;;;8.45;;
20954;SDS011;10636;19.390;-99.256;2022-12-18T01:15:13;8.90;;;8.07;;
20954;SDS011;10636;19.390;-99.256;2022-12-18T01:17:42;10.02;;;9.02;;
20954;SDS011;10636;19.390;-99.256;2022-12-18T01:20:11;9.60;;;8.70;;
20954;SDS011;10636;19.390;-99.256;2022-12-18T01:22:42;9.07;;;8.18;;
20954;SDS011;10636;19.390;-99.256;2022-12-18T01:25:10;9.00;;;8.20;;
20954;SDS011;10636;19.390;-99.256;2022-12-18T01:27:41;9.30;;;8.40;;
20954;SDS011;10636;19.390;-99.256;2022-12-18T01:30:10;9.25;;;8.45;;
20954;SDS011;10636;19.390;-99.256;2022-12-18T01:32:39;9.48;;;8.20;;
20954;SDS011;10636;19.390;-99.256;2022-12-18T01:35:07;9.68;;;8.63;;
20954;SDS011;10636;19.390;-99.256;2022-12-18T01:37:36;10.45;;;9.35;;
20954;SDS011;10636;19.390;-99.256;2022-12-18T01:40:07;9.45;;;8.45;;
20954;SDS011;10636;19.390;-99.256;2022-12-18T01:42:39;9.90;;;8.90;;
20954;SDS011;10636;19.390;-99.256;2022-12-18T01:45:21;10.13;;;8.43;;
20954;SDS011;10636;19.390;-99.256;2022-12-18T01:47:53;10.00;;;9.10;;
20954;SDS011;10636;19.390;-99.256;2022-12-18T01:50:23;11.05;;;9.95;;
20954;SDS011;10636;19.390;-99.256;2022-12-18T01:52:56;11.15;;;9.95;;
20954;SDS011;10636;19.390;-99.256;2022-12-18T01:55:29;11.68;;;9.40;;
20954;SDS011;10636;19.390;-99.256;2022-12-18T01:58:02;14.90;;;10.13;;
20954;SDS011;10636;19.390;-99.256;2022-12-18T02:00:31;11.30;;;10.30;;
20954;SDS011;10636;19.390;-99.256;2022-12-18T02:03:00;11.18;;;9.93;;
20954;SDS011;10636;19.390;-99.256;2022-12-18T02:05:35;12.75;;;10.30;;
20954;SDS011;10636;19.390;-99.256;2022-12-18T02:08:10;11.20;;;9.65;;
20954;SDS011;10636;19.390;-99.256;2022-12-18T02:10:47;11.50;;;9.68;;
20954;SDS011;10636;19.390;-99.256;2022-12-18T02:13:27;10.73;;;9.60;;
20954;SDS011;10636;19.390;-99.256;2022-12-18T02:16:05;11.30;;;10.15;;
20954;SDS011;10636;19.390;-99.256;2022-12-18T02:18:41;13.90;;;10.48;;
20954;SDS011;10636;19.390;-99.256;2022-12-18T02:21:14;16.33;;;11.57;;
20954;SDS011;10636;19.390;-99.256;2022-12-18T02:23:56;12.82;;;11.52;;
20954;SDS011;10636;19.390;-99.256;2022-12-18T02:26:37;14.98;;;12.07;;
20954;SDS011;10636;19.390;-99.256;2022-12-18T02:29:11;16.13;;;12.90;;
20954;SDS011;10636;19.390;-99.256;2022-12-18T02:31:44;18.13;;;13.90;;
20954;SDS011;10636;19.390;-99.256;2022-12-18T02:34:17;14.70;;;12.80;;
20954;SDS011;10636;19.390;-99.256;2022-12-18T02:36:47;15.43;;;13.20;;
20954;SDS011;10636;19.390;-99.256;2022-12-18T02:39:17;14.15;;;12.65;;
20954;SDS011;10636;19.390;-99.256;2022-12-18T02:41:50;13.57;;;12.02;;
20954;SDS011;10636;19.390;-99.256;2022-12-18T02:44:19;16.50;;;11.93;;
20954;SDS011;10636;19.390;-99.256;2022-12-18T02:46:48;16.83;;;11.75;;
20954;SDS011;10636;19.390;-99.256;2022-12-18T02:49:25;12.05;;;9.90;;
20954;SDS011;10636;19.390;-99.256;2022-12-18T02:52:02;13.25;;;11.85;;
20954;SDS011;10636;19.390;-99.256;2022-12-18T02:54:38;12.32;;;10.77;;
20954;SDS011;10636;19.390;-99.256;2022-12-18T02:57:27;12.10;;;10.82;;
20954;SDS011;10636;19.390;-99.256;2022-12-18T03:00:03;11.30;;;10.10;;
20954;SDS011;10636;19.390;-99.256;2022-12-18T03:02:37;11.98;;;10.68;;
20954;SDS011;10636;19.390;-99.256;2022-12-18T03:05:13;12.80;;;10.27;;
20954;SDS011;10636;19.390;-99.256;2022-12-18T03:07:46;11.80;;;10.70;;
20954;SDS011;10636;19.390;-99.256;2022-12-18T03:10:19;12.13;;;10.73;;
20954;SDS011;10636;19.390;-99.256;2022-12-18T03:12:54;11.85;;;9.88;;
20954;SDS011;10636;19.390;-99.256;2022-12-18T03:15:28;12.05;;;10.85;;
20954;SDS011;10636;19.390;-99.256;2022-12-18T03:18:02;12.02;;;10.93;;
20954;SDS011;10636;19.390;-99.256;2022-12-18T03:20:35;11.95;;;10.85;;
20954;SDS011;10636;19.390;-99.256;2022-12-18T03:23:07;14.15;;;11.32;;
20954;SDS011;10636;19.390;-99.256;2022-12-18T03:25:39;12.85;;;11.13;;
20954;SDS011;10636;19.390;-99.256;2022-12-18T03:28:12;12.27;;;10.98;;
20954;SDS011;10636;19.390;-99.256;2022-12-18T03:30:43;14.00;;;12.13;;
20954;SDS011;10636;19.390;-99.256;2022-12-18T03:33:15;14.02;;;11.90;;
20954;SDS011;10636;19.390;-99.256;2022-12-18T03:35:47;14.35;;;12.73;;
20954;SDS011;10636;19.390;-99.256;2022-12-18T03:38:16;12.88;;;11.63;;
20954;SDS011;10636;19.390;-99.256;2022-12-18T03:40:47;14.98;;;11.70;;
20954;SDS011;10636;19.390;-99.256;2022-12-18T03:43:28;13.43;;;12.02;;
20954;SDS011;10636;19.390;-99.256;2022-12-18T03:46:02;13.13;;;11.80;;
20954;SDS011;10636;19.390;-99.256;2022-12-18T03:48:36;13.63;;;11.70;;
20954;SDS011;10636;19.390;-99.256;2022-12-18T03:51:10;14.55;;;13.15;;
20954;SDS011;10636;19.390;-99.256;2022-12-18T03:53:46;13.05;;;11.70;;
20954;SDS011;10636;19.390;-99.256;2022-12-18T03:56:21;15.05;;;11.65;;
20954;SDS011;10636;19.390;-99.256;2022-12-18T03:58:54;14.43;;;12.38;;
20954;SDS011;10636;19.390;-99.256;2022-12-18T04:01:25;13.70;;;11.65;;
20954;SDS011;10636;19.390;-99.256;2022-12-18T04:03:59;14.63;;;12.23;;
20954;SDS011;10636;19.390;-99.256;2022-12-18T04:06:29;16.70;;;12.25;;
20954;SDS011;10636;19.390;-99.256;2022-12-18T04:08:57;15.20;;;12.10;;
20954;SDS011;10636;19.390;-99.256;2022-12-18T04:11:26;14.57;;;11.40;;
20954;SDS011;10636;19.390;-99.256;2022-12-18T04:13:57;13.52;;;12.23;;
20954;SDS011;10636;19.390;-99.256;2022-12-18T04:16:26;13.30;;;11.82;;
20954;SDS011;10636;19.390;-99.256;2022-12-18T04:18:55;13.73;;;11.65;;
20954;SDS011;10636;19.390;-99.256;2022-12-18T04:21:23;14.07;;;12.75;;
20954;SDS011;10636;19.390;-99.256;2022-12-18T04:23:52;13.48;;;11.77;;
20954;SDS011;10636;19.390;-99.256;2022-12-18T04:26:20;13.90;;;11.82;;
20954;SDS011;10636;19.390;-99.256;2022-12-18T04:28:49;14.02;;;12.38;;
20954;SDS011;10636;19.390;-99.256;2022-12-18T04:31:19;15.30;;;12.02;;
20954;SDS011;10636;19.390;-99.256;2022-12-18T04:33:47;13.18;;;11.77;;
20954;SDS011;10636;19.390;-99.256;2022-12-18T04:36:16;13.20;;;11.90;;
20954;SDS011;10636;19.390;-99.256;2022-12-18T04:38:44;13.20;;;12.00;;
20954;SDS011;10636;19.390;-99.256;2022-12-18T04:41:13;13.32;;;11.90;;
20954;SDS011;10636;19.390;-99.256;2022-12-18T04:43:41;13.55;;;12.25;;
20954;SDS011;10636;19.390;-99.256;2022-12-18T04:46:10;13.70;;;12.27;;
20954;SDS011;10636;19.390;-99.256;2022-12-18T04:48:40;13.70;;;12.38;;
20954;SDS011;10636;19.390;-99.256;2022-12-18T04:51:09;14.40;;;12.82;;
20954;SDS011;10636;19.390;-99.256;2022-12-18T04:53:37;14.90;;;12.93;;
20954;SDS011;10636;19.390;-99.256;2022-12-18T04:56:06;14.40;;;11.93;;
20954;SDS011;10636;19.390;-99.256;2022-12-18T04:58:38;14.18;;;12.75;;
20954;SDS011;10636;19.390;-99.256;2022-12-18T05:01:07;13.13;;;11.55;;
20954;SDS011;10636;19.390;-99.256;2022-12-18T05:03:37;13.15;;;11.93;;
20954;SDS011;10636;19.390;-99.256;2022-12-18T05:06:08;15.18;;;12.65;;
20954;SDS011;10636;19.390;-99.256;2022-12-18T05:08:37;15.02;;;11.88;;
20954;SDS011;10636;19.390;-99.256;2022-12-18T05:11:06;16.02;;;11.88;;
20954;SDS011;10636;19.390;-99.256;2022-12-18T05:13:36;15.07;;;11.80;;
20954;SDS011;10636;19.390;-99.256;2022-12-18T05:16:05;12.98;;;11.68;;
20954;SDS011;10636;19.390;-99.256;2022-12-18T05:18:34;13.13;;;11.77;;
20954;SDS011;10636;19.390;-99.256;2022-12-18T05:21:03;13.00;;;11.63;;
20954;SDS011;10636;19.390;-99.256;2022-12-18T05:23:33;12.90;;;11.55;;
20954;SDS011;10636;19.390;-99.256;2022-12-18T05:26:02;13.02;;;11.60;;
20954;SDS011;10636;19.390;-99.256;2022-12-18T05:28:32;13.52;;;12.13;;
20954;SDS011;10636;19.390;-99.256;2022-12-18T05:31:02;13.43;;;11.75;;
20954;SDS011;10636;19.390;-99.256;2022-12-18T05:33:32;13.40;;;12.02;;
20954;SDS011;10636;19.390;-99.256;2022-12-18T05:36:02;13.82;;;11.93;;
20954;SDS011;10636;19.390;-99.256;2022-12-18T05:38:34;13.80;;;12.40;;
20954;SDS011;10636;19.390;-99.256;2022-12-18T05:41:04;13.00;;;11.57;;
20954;SDS011;10636;19.390;-99.256;2022-12-18T05:43:34;12.85;;;11.60;;
20954;SDS011;10636;19.390;-99.256;2022-12-18T05:46:04;13.90;;;12.43;;
20954;SDS011;10636;19.390;-99.256;2022-12-18T05:48:33;13.25;;;11.95;;
20954;SDS011;10636;19.390;-99.256;2022-12-18T05:51:05;14.02;;;11.55;;
20954;SDS011;10636;19.390;-99.256;2022-12-18T05:53:37;13.20;;;11.85;;
20954;SDS011;10636;19.390;-99.256;2022-12-18T05:56:07;13.25;;;11.95;;
20954;SDS011;10636;19.390;-99.256;2022-12-18T05:58:36;13.82;;;12.35;;
20954;SDS011;10636;19.390;-99.256;2022-12-18T06:01:08;14.65;;;12.90;;
20954;SDS011;10636;19.390;-99.256;2022-12-18T06:03:39;13.35;;;11.90;;
20954;SDS011;10636;19.390;-99.256;2022-12-18T06:06:16;14.02;;;12.63;;
20954;SDS011;10636;19.390;-99.256;2022-12-18T06:08:48;13.40;;;12.10;;
20954;SDS011;10636;19.390;-99.256;2022-12-18T06:11:17;13.55;;;12.25;;
20954;SDS011;10636;19.390;-99.256;2022-12-18T06:13:49;14.45;;;12.95;;
20954;SDS011;10636;19.390;-99.256;2022-12-18T06:16:18;14.20;;;12.82;;
20954;SDS011;10636;19.390;-99.256;2022-12-18T06:18:46;13.15;;;11.95;;
20954;SDS011;10636;19.390;-99.256;2022-12-18T06:21:15;14.60;;;13.18;;
20954;SDS011;10636;19.390;-99.256;2022-12-18T06:23:43;13.30;;;12.10;;
20954;SDS011;10636;19.390;-99.256;2022-12-18T06:26:13;14.63;;;13.18;;
20954;SDS011;10636;19.390;-99.256;2022-12-18T06:28:42;15.00;;;12.95;;
20954;SDS011;10636;19.390;-99.256;2022-12-18T06:31:11;13.55;;;12.25;;
20954;SDS011;10636;19.390;-99.256;2022-12-18T06:33:39;13.70;;;12.43;;
20954;SDS011;10636;19.390;-99.256;2022-12-18T06:36:09;14.25;;;12.95;;
20954;SDS011;10636;19.390;-99.256;2022-12-18T06:38:41;13.93;;;12.52;;
20954;SDS011;10636;19.390;-99.256;2022-12-18T06:41:11;14.32;;;12.95;;
20954;SDS011;10636;19.390;-99.256;2022-12-18T06:43:42;14.95;;;13.30;;
20954;SDS011;10636;19.390;-99.256;2022-12-18T06:46:10;14.82;;;13.27;;
20954;SDS011;10636;19.390;-99.256;2022-12-18T06:48:39;13.90;;;12.55;;
20954;SDS011;10636;19.390;-99.256;2022-12-18T06:51:08;14.43;;;12.88;;
20954;SDS011;10636;19.390;-99.256;2022-12-18T06:53:36;14.15;;;12.70;;
20954;SDS011;10636;19.390;-99.256;2022-12-18T06:56:05;14.13;;;12.80;;
20954;SDS011;10636;19.390;-99.256;2022-12-18T06:58:36;14.55;;;13.23;;
20954;SDS011;10636;19.390;-99.256;2022-12-18T07:01:05;15.02;;;13.65;;
20954;SDS011;10636;19.390;-99.256;2022-12-18T07:03:35;15.65;;;14.23;;
20954;SDS011;10636;19.390;-99.256;2022-12-18T07:06:04;14.90;;;13.50;;
20954;SDS011;10636;19.390;-99.256;2022-12-18T07:08:35;14.90;;;13.43;;
20954;SDS011;10636;19.390;-99.256;2022-12-18T07:11:04;14.48;;;12.85;;
20954;SDS011;10636;19.390;-99.256;2022-12-18T07:13:32;14.05;;;12.60;;
20954;SDS011;10636;19.390;-99.256;2022-12-18T07:16:07;15.10;;;13.40;;
20954;SDS011;10636;19.390;-99.256;2022-12-18T07:18:39;14.45;;;12.95;;
20954;SDS011;10636;19.390;-99.256;2022-12-18T07:21:07;15.00;;;13.60;;
20954;SDS011;10636;19.390;-99.256;2022-12-18T07:23:37;15.93;;;14.25;;
20954;SDS011;10636;19.390;-99.256;2022-12-18T07:26:06;15.95;;;14.35;;
20954;SDS011;10636;19.390;-99.256;2022-12-18T07:28:36;15.23;;;13.75;;
20954;SDS011;10636;19.390;-99.256;2022-12-18T07:31:07;15.48;;;13.63;;
20954;SDS011;10636;19.390;-99.256;2022-12-18T07:33:37;15.18;;;13.52;;
20954;SDS011;10636;19.390;-99.256;2022-12-18T07:36:06;15.90;;;14.40;;
20954;SDS011;10636;19.390;-99.256;2022-12-18T07:38:36;14.50;;;13.05;;
20954;SDS011;10636;19.390;-99.256;2022-12-18T07:41:06;16.13;;;14.60;;
20954;SDS011;10636;19.390;-99.256;2022-12-18T07:43:35;15.30;;;13.70;;
20954;SDS011;10636;19.390;-99.256;2022-12-18T07:46:06;16.17;;;14.68;;
20954;SDS011;10636;19.390;-99.256;2022-12-18T07:48:35;16.08;;;14.52;;
20954;SDS011;10636;19.390;-99.256;2022-12-18T07:51:05;15.95;;;14.35;;
20954;SDS011;10636;19.390;-99.256;2022-12-18T07:53:34;16.67;;;14.88;;
20954;SDS011;10636;19.390;-99.256;2022-12-18T07:56:04;17.20;;;14.65;;
20954;SDS011;10636;19.390;-99.256;2022-12-18T07:58:35;16.45;;;14.68;;
20954;SDS011;10636;19.390;-99.256;2022-12-18T08:01:06;16.13;;;14.45;;
20954;SDS011;10636;19.390;-99.256;2022-12-18T08:03:35;16.20;;;14.73;;
20954;SDS011;10636;19.390;-99.256;2022-12-18T08:06:05;15.57;;;13.98;;
20954;SDS011;10636;19.390;-99.256;2022-12-18T08:08:35;16.20;;;14.60;;
20954;SDS011;10636;19.390;-99.256;2022-12-18T08:11:06;16.38;;;14.77;;
20954;SDS011;10636;19.390;-99.256;2022-12-18T08:13:34;16.15;;;14.65;;
20954;SDS011;10636;19.390;-99.256;2022-12-18T08:16:03;16.67;;;15.13;;
20954;SDS011;10636;19.390;-99.256;2022-12-18T08:18:35;16.60;;;14.98;;
20954;SDS011;10636;19.390;-99.256;2022-12-18T08:21:07;16.00;;;14.43;;
20954;SDS011;10636;19.390;-99.256;2022-12-18T08:23:37;16.60;;;14.70;;
20954;SDS011;10636;19.390;-99.256;2022-12-18T08:26:05;15.65;;;14.18;;
20954;SDS011;10636;19.390;-99.256;2022-12-18T08:28:34;16.02;;;14.45;;
20954;SDS011;10636;19.390;-99.256;2022-12-18T08:31:02;15.95;;;14.25;;
20954;SDS011;10636;19.390;-99.256;2022-12-18T08:33:33;15.82;;;14.20;;
20954;SDS011;10636;19.390;-99.256;2022-12-18T08:36:01;15.05;;;13.38;;
20954;SDS011;10636;19.390;-99.256;2022-12-18T08:38:31;15.60;;;13.98;;
20954;SDS011;10636;19.390;-99.256;2022-12-18T08:41:00;16.30;;;14.45;;
20954;SDS011;10636;19.390;-99.256;2022-12-18T08:43:30;15.93;;;14.48;;
20954;SDS011;10636;19.390;-99.256;2022-12-18T08:46:16;16.05;;;14.50;;
20954;SDS011;10636;19.390;-99.256;2022-12-18T08:48:49;16.00;;;14.43;;
20954;SDS011;10636;19.390;-99.256;2022-12-18T08:51:18;16.15;;;14.65;;
20954;SDS011;10636;19.390;-99.256;2022-12-18T08:53:47;16.35;;;14.65;;
20954;SDS011;10636;19.390;-99.256;2022-12-18T08:56:16;15.70;;;14.20;;
20954;SDS011;10636;19.390;-99.256;2022-12-18T08:58:44;16.08;;;14.57;;
20954;SDS011;10636;19.390;-99.256;2022-12-18T09:01:13;16.20;;;14.60;;
20954;SDS011;10636;19.390;-99.256;2022-12-18T09:03:41;16.67;;;14.90;;
20954;SDS011;10636;19.390;-99.256;2022-12-18T09:06:15;16.75;;;15.15;;
20954;SDS011;10636;19.390;-99.256;2022-12-18T09:08:44;16.67;;;15.02;;
20954;SDS011;10636;19.390;-99.256;2022-12-18T09:11:14;16.13;;;14.63;;
20954;SDS011;10636;19.390;-99.256;2022-12-18T09:13:46;16.63;;;15.00;;
20954;SDS011;10636;19.390;-99.256;2022-12-18T09:16:15;16.65;;;15.10;;
20954;SDS011;10636;19.390;-99.256;2022-12-18T09:18:45;15.75;;;14.30;;
20954;SDS011;10636;19.390;-99.256;2022-12-18T09:21:15;16.35;;;14.85;;
20954;SDS011;10636;19.390;-99.256;2022-12-18T09:23:48;16.90;;;15.30;;
20954;SDS011;10636;19.390;-99.256;2022-12-18T09:26:17;15.57;;;14.07;;
20954;SDS011;10636;19.390;-99.256;2022-12-18T09:28:46;16.40;;;14.70;;
20954;SDS011;10636;19.390;-99.256;2022-12-18T09:31:14;16.55;;;14.95;;
20954;SDS011;10636;19.390;-99.256;2022-12-18T09:33:43;16.10;;;14.57;;
20954;SDS011;10636;19.390;-99.256;2022-12-18T09:36:12;16.00;;;14.50;;
20954;SDS011;10636;19.390;-99.256;2022-12-18T09:38:43;16.23;;;14.65;;
20954;SDS011;10636;19.390;-99.256;2022-12-18T09:41:17;17.02;;;15.00;;
20954;SDS011;10636;19.390;-99.256;2022-12-18T09:43:59;15.45;;;13.80;;
20954;SDS011;10636;19.390;-99.256;2022-12-18T09:46:30;16.20;;;14.70;;
20954;SDS011;10636;19.390;-99.256;2022-12-18T09:49:02;16.25;;;14.68;;
20954;SDS011;10636;19.390;-99.256;2022-12-18T09:51:36;15.82;;;14.43;;
20954;SDS011;10636;19.390;-99.256;2022-12-18T09:54:11;15.75;;;14.25;;
20954;SDS011;10636;19.390;-99.256;2022-12-18T09:56:42;15.48;;;14.05;;
20954;SDS011;10636;19.390;-99.256;2022-12-18T09:59:15;15.77;;;14.30;;
20954;SDS011;10636;19.390;-99.256;2022-12-18T10:02:00;14.82;;;13.43;;
20954;SDS011;10636;19.390;-99.256;2022-12-18T10:04:42;14.85;;;13.45;;
20954;SDS011;10636;19.390;-99.256;2022-12-18T10:07:16;15.38;;;13.88;;
20954;SDS011;10636;19.390;-99.256;2022-12-18T10:09:53;16.15;;;14.65;;
20954;SDS011;10636;19.390;-99.256;2022-12-18T10:12:30;15.57;;;13.95;;
20954;SDS011;10636;19.390;-99.256;2022-12-18T10:15:10;16.58;;;14.95;;
20954;SDS011;10636;19.390;-99.256;2022-12-18T10:17:49;16.02;;;14.52;;
20954;SDS011;10636;19.390;-99.256;2022-12-18T10:20:27;16.42;;;14.90;;
20954;SDS011;10636;19.390;-99.256;2022-12-18T10:23:09;15.75;;;14.35;;
20954;SDS011;10636;19.390;-99.256;2022-12-18T10:25:46;16.13;;;14.40;;
20954;SDS011;10636;19.390;-99.256;2022-12-18T10:28:21;15.85;;;14.30;;
20954;SDS011;10636;19.390;-99.256;2022-12-18T10:30:50;18.05;;;14.50;;
20954;SDS011;10636;19.390;-99.256;2022-12-18T10:33:20;16.13;;;14.38;;
20954;SDS011;10636;19.390;-99.256;2022-12-18T10:35:50;16.27;;;13.95;;
20954;SDS011;10636;19.390;-99.256;2022-12-18T10:38:23;15.73;;;14.02;;
20954;SDS011;10636;19.390;-99.256;2022-12-18T10:40:54;16.08;;;14.30;;
20954;SDS011;10636;19.390;-99.256;2022-12-18T10:43:25;15.25;;;13.52;;
20954;SDS011;10636;19.390;-99.256;2022-12-18T10:45:59;15.15;;;13.75;;
20954;SDS011;10636;19.390;-99.256;2022-12-18T10:48:31;15.40;;;13.90;;
20954;SDS011;10636;19.390;-99.256;2022-12-18T10:51:01;15.93;;;13.57;;
20954;SDS011;10636;19.390;-99.256;2022-12-18T10:53:32;15.57;;;14.10;;
20954;SDS011;10636;19.390;-99.256;2022-12-18T10:56:03;14.20;;;12.90;;
20954;SDS011;10636;19.390;-99.256;2022-12-18T10:58:34;15.82;;;13.88;;
20954;SDS011;10636;19.390;-99.256;2022-12-18T11:01:05;15.30;;;13.93;;
20954;SDS011;10636;19.390;-99.256;2022-12-18T11:03:36;14.82;;;13.45;;
20954;SDS011;10636;19.390;-99.256;2022-12-18T11:06:07;14.35;;;13.02;;
20954;SDS011;10636;19.390;-99.256;2022-12-18T11:08:39;14.57;;;13.18;;
20954;SDS011;10636;19.390;-99.256;2022-12-18T11:11:15;15.75;;;13.35;;
20954;SDS011;10636;19.390;-99.256;2022-12-18T11:16:34;15.02;;;13.60;;
20954;SDS011;10636;19.390;-99.256;2022-12-18T11:21:57;15.43;;;14.13;;
20954;SDS011;10636;19.390;-99.256;2022-12-18T11:24:30;15.90;;;14.50;;
20954;SDS011;10636;19.390;-99.256;2022-12-18T11:27:00;16.25;;;14.75;;
20954;SDS011;10636;19.390;-99.256;2022-12-18T11:29:34;14.80;;;13.30;;
20954;SDS011;10636;19.390;-99.256;2022-12-18T11:34:57;15.48;;;13.82;;
20954;SDS011;10636;19.390;-99.256;2022-12-18T11:37:29;15.50;;;14.00;;
20954;SDS011;10636;19.390;-99.256;2022-12-18T11:40:03;14.75;;;13.35;;
20954;SDS011;10636;19.390;-99.256;2022-12-18T11:42:38;15.00;;;13.60;;
20954;SDS011;10636;19.390;-99.256;2022-12-18T11:45:23;14.32;;;13.02;;
20954;SDS011;10636;19.390;-99.256;2022-12-18T11:47:56;14.93;;;13.52;;
20954;SDS011;10636;19.390;-99.256;2022-12-18T11:50:30;14.65;;;13.35;;
20954;SDS011;10636;19.390;-99.256;2022-12-18T11:53:09;15.80;;;14.30;;
20954;SDS011;10636;19.390;-99.256;2022-12-18T11:55:41;14.82;;;13.48;;
20954;SDS011;10636;19.390;-99.256;2022-12-18T11:58:19;14.73;;;13.15;;
20954;SDS011;10636;19.390;-99.256;2022-12-18T12:00:59;15.07;;;13.50;;
20954;SDS011;10636;19.390;-99.256;2022-12-18T12:06:32;14.95;;;13.35;;
20954;SDS011;10636;19.390;-99.256;2022-12-18T12:09:12;14.95;;;13.65;;
20954;SDS011;10636;19.390;-99.256;2022-12-18T12:11:53;16.20;;;14.80;;
20954;SDS011;10636;19.390;-99.256;2022-12-18T12:14:46;16.00;;;14.50;;
20954;SDS011;10636;19.390;-99.256;2022-12-18T12:17:22;15.38;;;13.77;;
20954;SDS011;10636;19.390;-99.256;2022-12-18T12:19:59;16.67;;;14.88;;
20954;SDS011;10636;19.390;-99.256;2022-12-18T12:22:36;16.65;;;15.15;;
20954;SDS011;10636;19.390;-99.256;2022-12-18T12:25:18;17.50;;;15.80;;
20954;SDS011;10636;19.390;-99.256;2022-12-18T12:28:03;16.95;;;15.18;;
20954;SDS011;10636;19.390;-99.256;2022-12-18T12:30:48;17.58;;;15.07;;
20954;SDS011;10636;19.390;-99.256;2022-12-18T12:33:28;16.98;;;14.90;;
20954;SDS011;10636;19.390;-99.256;2022-12-18T12:36:06;17.38;;;15.70;;
20954;SDS011;10636;19.390;-99.256;2022-12-18T12:38:43;15.75;;;14.35;;
20954;SDS011;10636;19.390;-99.256;2022-12-18T12:41:16;16.30;;;14.60;;
20954;SDS011;10636;19.390;-99.256;2022-12-18T12:44:07;16.25;;;14.65;;
20954;SDS011;10636;19.390;-99.256;2022-12-18T12:46:44;16.58;;;14.88;;
20954;SDS011;10636;19.390;-99.256;2022-12-18T12:49:17;16.23;;;14.73;;
20954;SDS011;10636;19.390;-99.256;2022-12-18T12:51:50;16.25;;;14.75;;
20954;SDS011;10636;19.390;-99.256;2022-12-18T12:54:24;16.33;;;14.80;;
20954;SDS011;10636;19.390;-99.256;2022-12-18T12:56:56;15.77;;;14.23;;
20954;SDS011;10636;19.390;-99.256;2022-12-18T12:59:34;16.65;;;15.05;;
20954;SDS011;10636;19.390;-99.256;2022-12-18T13:02:13;15.88;;;14.27;;
20954;SDS011;10636;19.390;-99.256;2022-12-18T13:04:46;16.52;;;14.82;;
20954;SDS011;10636;19.390;-99.256;2022-12-18T13:07:18;16.08;;;13.85;;
20954;SDS011;10636;19.390;-99.256;2022-12-18T13:13:01;17.10;;;15.38;;
20954;SDS011;10636;19.390;-99.256;2022-12-18T13:15:33;18.00;;;15.00;;
20954;SDS011;10636;19.390;-99.256;2022-12-18T13:18:11;16.77;;;14.88;;
20954;SDS011;10636;19.390;-99.256;2022-12-18T13:20:46;17.17;;;15.57;;
20954;SDS011;10636;19.390;-99.256;2022-12-18T13:23:20;17.23;;;15.63;;
20954;SDS011;10636;19.390;-99.256;2022-12-18T13:25:55;16.17;;;14.52;;
20954;SDS011;10636;19.390;-99.256;2022-12-18T13:34:31;16.25;;;14.65;;
20954;SDS011;10636;19.390;-99.256;2022-12-18T13:43:14;16.98;;;14.60;;
20954;SDS011;10636;19.390;-99.256;2022-12-18T13:45:49;18.85;;;15.57;;
20954;SDS011;10636;19.390;-99.256;2022-12-18T13:48:26;17.38;;;15.75;;
20954;SDS011;10636;19.390;-99.256;2022-12-18T13:51:01;18.10;;;16.10;;
20954;SDS011;10636;19.390;-99.256;2022-12-18T13:53:33;18.25;;;16.52;;
20954;SDS011;10636;19.390;-99.256;2022-12-18T13:56:05;17.08;;;15.50;;
20954;SDS011;10636;19.390;-99.256;2022-12-18T13:58:34;16.52;;;14.80;;
20954;SDS011;10636;19.390;-99.256;2022-12-18T14:01:02;16.77;;;14.93;;
20954;SDS011;10636;19.390;-99.256;2022-12-18T14:03:31;16.15;;;14.45;;
20954;SDS011;10636;19.390;-99.256;2022-12-18T14:06:05;17.30;;;15.45;;
20954;SDS011;10636;19.390;-99.256;2022-12-18T14:08:37;16.35;;;14.65;;
20954;SDS011;10636;19.390;-99.256;2022-12-18T14:11:11;16.38;;;14.25;;
20954;SDS011;10636;19.390;-99.256;2022-12-18T14:13:48;16.52;;;15.00;;
20954;SDS011;10636;19.390;-99.256;2022-12-18T14:16:17;16.20;;;14.70;;
20954;SDS011;10636;19.390;-99.256;2022-12-18T14:18:48;16.52;;;13.45;;
20954;SDS011;10636;19.390;-99.256;2022-12-18T14:21:23;14.98;;;13.38;;
20954;SDS011;10636;19.390;-99.256;2022-12-18T14:24:03;16.40;;;14.90;;
20954;SDS011;10636;19.390;-99.256;2022-12-18T14:26:33;15.50;;;14.00;;
20954;SDS011;10636;19.390;-99.256;2022-12-18T14:29:17;15.75;;;14.15;;
20954;SDS011;10636;19.390;-99.256;2022-12-18T14:34:39;15.15;;;13.55;;
20954;SDS011;10636;19.390;-99.256;2022-12-18T14:37:11;14.75;;;13.25;;
20954;SDS011;10636;19.390;-99.256;2022-12-18T14:39:40;15.20;;;13.60;;
20954;SDS011;10636;19.390;-99.256;2022-12-18T14:42:20;14.80;;;13.20;;
20954;SDS011;10636;19.390;-99.256;2022-12-18T14:44:48;14.57;;;13.07;;
20954;SDS011;10636;19.390;-99.256;2022-12-18T14:47:17;15.43;;;13.93;;
20954;SDS011;10636;19.390;-99.256;2022-12-18T14:49:46;15.02;;;13.63;;
20954;SDS011;10636;19.390;-99.256;2022-12-18T14:52:20;15.07;;;13.77;;
20954;SDS011;10636;19.390;-99.256;2022-12-18T14:54:53;16.40;;;12.98;;